Time;durP1;ratioP1;P1;durP2;ratioP2;P2;SDS_P1;SDS_P2;PMS_P1;PMS_P2;Temp;Humidity;BMP_temperature;BMP_pressure;BME280_temperature;BME280_humidity;BME280_pressure;Samples;Min_cycle;Max_cycle;Signal;HPM_P1;HPM_P2
2022/09/06 00:00:26;;;;;;;9.32;2.13;;;20.90;99.90;;;;;;5077073;28;20495;-65
2022/09/06 00:02:52;;;;;;;7.18;1.65;;;20.90;99.90;;;;;;5077167;28;20117;-66
2022/09/06 00:05:17;;;;;;;13.52;2.08;;;21.00;99.90;;;;;;5077045;28;20078;-66
2022/09/06 00:07:43;;;;;;;14.57;2.60;;;21.00;99.90;;;;;;5076744;28;20047;-65
2022/09/06 00:10:09;;;;;;;3.50;1.20;;;21.10;99.90;;;;;;5076818;28;20032;-66
2022/09/06 00:12:36;;;;;;;3.65;1.50;;;21.10;99.90;;;;;;5076782;28;20454;-65
2022/09/06 00:15:03;;;;;;;4.88;1.38;;;21.20;99.90;;;;;;5076789;28;20036;-66
2022/09/06 00:17:30;;;;;;;14.73;2.35;;;21.10;99.90;;;;;;5076379;28;20396;-66
2022/09/06 00:19:56;;;;;;;7.88;2.47;;;21.30;99.90;;;;;;5071625;28;20044;-68
2022/09/06 00:22:22;;;;;;;5.15;1.40;;;21.30;99.90;;;;;;5054350;28;20049;-66
2022/09/06 00:24:48;;;;;;;9.98;1.90;;;21.40;99.90;;;;;;5053771;28;20033;-66
2022/09/06 00:27:14;;;;;;;8.13;2.35;;;21.40;99.90;;;;;;5056572;28;20128;-66
2022/09/06 00:29:40;;;;;;;11.82;1.63;;;21.40;99.90;;;;;;5056502;28;20044;-66
2022/09/06 00:32:07;;;;;;;5.95;1.23;;;21.40;99.90;;;;;;5056223;28;20523;-65
2022/09/06 00:34:33;;;;;;;4.90;1.65;;;21.40;99.90;;;;;;5056146;28;20055;-66
2022/09/06 00:36:59;;;;;;;6.95;1.10;;;21.40;99.90;;;;;;5056127;28;20036;-66
2022/09/06 00:39:25;;;;;;;11.95;1.50;;;21.30;99.90;;;;;;5056201;28;20086;-66
2022/09/06 00:41:51;;;;;;;6.22;1.27;;;20.70;99.90;;;;;;5056285;28;20040;-65
2022/09/06 00:44:17;;;;;;;5.72;1.42;;;20.70;99.90;;;;;;5056215;28;20029;-66
2022/09/06 00:46:46;;;;;;;10.45;1.70;;;20.90;99.90;;;;;;5056103;28;20037;-65
2022/09/06 00:49:23;;;;;;;16.48;1.88;;;21.20;99.90;;;;;;5055941;28;20381;-66
2022/09/06 00:51:57;;;;;;;3.95;1.48;;;21.30;99.90;;;;;;5056201;28;20041;-65
2022/09/06 00:54:23;;;;;;;3.97;1.52;;;21.40;99.90;;;;;;5055972;28;20052;-65
2022/09/06 00:56:49;;;;;;;7.88;1.60;;;20.90;99.90;;;;;;5055780;28;20049;-66
2022/09/06 00:59:16;;;;;;;6.95;1.77;;;20.80;99.90;;;;;;5055763;28;20106;-65
2022/09/06 01:01:42;;;;;;;11.43;1.77;;;20.80;99.90;;;;;;5055729;28;20056;-66
2022/09/06 01:04:08;;;;;;;13.75;1.63;;;20.80;99.90;;;;;;5055741;28;20079;-65
2022/09/06 01:06:46;;;;;;;7.68;1.42;;;20.80;99.90;;;;;;5055696;28;20032;-65
2022/09/06 01:09:38;;;;;;;5.38;1.50;;;21.00;99.90;;;;;;5055579;28;20075;-65
2022/09/06 01:12:19;;;;;;;6.82;1.45;;;21.20;99.90;;;;;;5055524;28;20496;-65
2022/09/06 01:15:04;;;;;;;4.47;1.17;;;21.10;99.90;;;;;;5055556;28;20407;-66
2022/09/06 01:17:57;;;;;;;4.47;0.90;;;21.10;99.90;;;;;;5055609;28;20060;-66
2022/09/06 01:20:26;;;;;;;10.07;1.55;;;21.00;99.90;;;;;;5055485;28;20133;-66
2022/09/06 01:23:03;;;;;;;7.32;1.40;;;;;;;;;;5055718;28;20037;-65
2022/09/06 01:25:34;;;;;;;5.43;1.30;;;21.30;99.90;;;;;;5072844;28;20048;-65
2022/09/06 01:28:16;;;;;;;4.13;1.23;;;21.20;99.90;;;;;;5075574;28;20036;-65
2022/09/06 01:31:12;;;;;;;9.50;1.90;;;20.90;99.90;;;;;;5075499;28;20048;-65
2022/09/06 01:33:42;;;;;;;9.60;2.08;;;20.90;99.90;;;;;;5075232;28;20051;-66
2022/09/06 01:36:12;;;;;;;8.10;2.00;;;20.70;99.90;;;;;;5075025;28;20040;-65
2022/09/06 01:38:38;;;;;;;6.40;1.73;;;20.50;99.90;;;;;;5074981;28;20102;-66
2022/09/06 01:41:04;;;;;;;6.50;1.20;;;20.40;99.90;;;;;;5074906;28;20044;-65
2022/09/06 01:43:38;;;;;;;8.07;1.50;;;20.30;99.90;;;;;;5073481;28;20450;-65
2022/09/06 01:46:04;;;;;;;5.07;1.40;;;20.40;99.90;;;;;;5074965;28;20115;-66
2022/09/06 01:48:43;;;;;;;7.90;1.33;;;20.50;99.90;;;;;;5075034;28;20116;-65
2022/09/06 01:51:37;;;;;;;5.85;1.17;;;20.70;99.90;;;;;;5075036;28;20506;-65
2022/09/06 01:54:21;;;;;;;6.78;1.52;;;20.80;99.90;;;;;;5075138;28;20045;-65
2022/09/06 01:57:21;;;;;;;6.30;1.40;;;20.70;99.90;;;;;;5074438;28;20059;-65
2022/09/06 02:00:10;;;;;;;5.15;1.15;;;20.80;99.90;;;;;;5072574;28;20044;-65
2022/09/06 02:02:41;;;;;;;11.13;1.52;;;20.70;99.90;;;;;;5074145;28;20101;-65
2022/09/06 02:05:23;;;;;;;4.60;2.25;;;20.40;99.90;;;;;;5074653;28;20060;-65
2022/09/06 02:07:53;;;;;;;8.23;1.52;;;20.30;99.90;;;;;;5074606;28;20119;-66
2022/09/06 02:10:31;;;;;;;4.63;1.13;;;20.40;99.90;;;;;;5074586;28;20044;-65
2022/09/06 02:13:00;;;;;;;4.95;1.08;;;20.30;99.90;;;;;;5074204;28;20039;-66
2022/09/06 02:15:31;;;;;;;3.40;1.15;;;20.20;99.90;;;;;;5074226;28;20041;-66
2022/09/06 02:18:12;;;;;;;4.95;1.45;;;20.20;99.90;;;;;;5074172;28;20052;-66
2022/09/06 02:20:44;;;;;;;4.45;1.30;;;20.20;99.90;;;;;;5074365;28;20543;-66
2022/09/06 02:23:10;;;;;;;5.45;1.55;;;20.20;99.90;;;;;;5074340;28;20179;-67
2022/09/06 02:25:40;;;;;;;6.60;1.58;;;20.40;99.90;;;;;;5074266;28;20051;-65
2022/09/06 02:28:07;;;;;;;9.70;1.95;;;20.40;99.90;;;;;;5074429;28;20119;-65
2022/09/06 02:31:03;;;;;;;6.45;1.05;;;20.20;99.90;;;;;;5073847;28;20036;-65
2022/09/06 02:33:32;;;;;;;4.20;1.25;;;20.50;99.90;;;;;;5073599;28;20045;-66
2022/09/06 02:36:04;;;;;;;4.43;1.10;;;20.60;99.90;;;;;;5074332;28;20131;-65
2022/09/06 02:38:33;;;;;;;2.67;1.10;;;20.50;99.90;;;;;;5074213;28;20045;-65
2022/09/06 02:40:59;;;;;;;5.68;1.38;;;20.30;99.90;;;;;;5074095;28;20037;-65
2022/09/06 02:43:26;;;;;;;5.68;1.60;;;20.10;99.90;;;;;;5074069;28;20559;-65
2022/09/06 02:45:51;;;;;;;2.83;1.20;;;19.90;99.90;;;;;;5074028;28;20495;-66
2022/09/06 02:48:17;;;;;;;5.30;1.45;;;19.90;99.90;;;;;;5074035;28;20039;-65
2022/09/06 02:50:43;;;;;;;8.65;1.85;;;19.90;99.90;;;;;;5074169;28;20051;-65
2022/09/06 02:53:13;;;;;;;8.95;1.60;;;20.00;99.90;;;;;;5074015;28;20040;-65
2022/09/06 02:55:39;;;;;;;2.60;1.77;;;20.10;99.90;;;;;;5074040;28;20046;-66
2022/09/06 02:58:08;;;;;;;6.82;1.90;;;20.20;99.90;;;;;;5073658;28;20388;-65
2022/09/06 03:00:34;;;;;;;5.70;1.75;;;20.20;99.90;;;;;;5073678;28;20045;-65
2022/09/06 03:02:59;;;;;;;3.33;1.58;;;20.20;99.90;;;;;;5073961;28;20075;-66
2022/09/06 03:05:26;;;;;;;4.90;2.10;;;20.20;99.90;;;;;;5073867;28;20056;-65
2022/09/06 03:07:53;;;;;;;9.63;2.35;;;20.10;99.90;;;;;;5075268;28;20068;-66
2022/09/06 03:10:20;;;;;;;4.88;1.80;;;20.10;99.90;;;;;;5078021;28;20094;-66
2022/09/06 03:12:46;;;;;;;4.30;1.58;;;20.10;99.90;;;;;;5077857;28;20097;-65
2022/09/06 03:15:13;;;;;;;5.68;1.75;;;20.20;99.90;;;;;;5077827;28;20048;-65
2022/09/06 03:17:40;;;;;;;5.50;2.20;;;20.10;99.90;;;;;;5077735;28;20044;-65
2022/09/06 03:20:08;;;;;;;8.77;2.47;;;20.00;99.90;;;;;;5077809;28;20032;-65
2022/09/06 03:22:35;;;;;;;4.93;1.60;;;20.00;99.90;;;;;;5076729;28;20044;-65
2022/09/06 03:25:01;;;;;;;9.68;2.70;;;20.00;99.90;;;;;;5077284;28;20057;-65
2022/09/06 03:27:26;;;;;;;5.55;2.00;;;20.00;99.90;;;;;;5076424;28;20045;-65
2022/09/06 03:29:52;;;;;;;5.57;1.73;;;20.00;99.90;;;;;;5077362;28;20106;-66
2022/09/06 03:32:18;;;;;;;2.97;1.45;;;19.80;99.90;;;;;;5077777;28;20044;-65
2022/09/06 03:34:44;;;;;;;9.95;2.05;;;19.70;99.90;;;;;;5077659;28;20458;-65
2022/09/06 03:37:09;;;;;;;5.47;1.75;;;19.50;99.90;;;;;;5077304;28;20516;-65
2022/09/06 03:39:35;;;;;;;9.45;2.40;;;19.50;99.90;;;;;;5077227;28;20085;-65
2022/09/06 03:42:01;;;;;;;7.35;1.65;;;19.40;99.90;;;;;;5077472;28;20043;-65
2022/09/06 03:44:27;;;;;;;7.03;1.70;;;19.30;99.90;;;;;;5077286;28;20032;-65
2022/09/06 03:46:53;;;;;;;6.25;1.35;;;19.30;99.90;;;;;;5077290;28;20040;-65
2022/09/06 03:49:18;;;;;;;9.38;2.55;;;18.90;99.90;;;;;;5077154;28;20446;-65
2022/09/06 03:51:44;;;;;;;7.40;1.40;;;18.70;99.90;;;;;;5077041;28;20442;-65
2022/09/06 03:54:10;;;;;;;10.90;1.50;;;18.60;99.90;;;;;;5076971;28;20041;-65
2022/09/06 03:56:36;;;;;;;10.20;1.20;;;18.70;99.90;;;;;;5076998;28;20079;-65
2022/09/06 03:59:02;;;;;;;7.70;1.42;;;18.80;99.90;;;;;;5076956;28;20081;-65
2022/09/06 04:01:27;;;;;;;9.20;1.35;;;18.90;99.90;;;;;;5077082;28;20131;-65
2022/09/06 04:03:53;;;;;;;5.32;1.52;;;19.00;99.90;;;;;;5077013;28;20073;-65
2022/09/06 04:06:19;;;;;;;9.35;2.22;;;19.10;99.90;;;;;;5076940;28;20568;-65
2022/09/06 04:08:45;;;;;;;7.60;1.55;;;19.20;99.90;;;;;;5076785;28;20029;-65
2022/09/06 04:11:11;;;;;;;8.20;1.65;;;19.20;99.90;;;;;;5076827;28;20044;-65
2022/09/06 04:13:37;;;;;;;8.55;1.85;;;19.30;99.90;;;;;;5076542;28;20048;-65
2022/09/06 04:16:04;;;;;;;6.50;1.80;;;19.30;99.90;;;;;;5076655;28;20583;-65
2022/09/06 04:18:30;;;;;;;6.47;1.83;;;19.30;99.90;;;;;;5076298;28;20045;-65
2022/09/06 04:21:00;;;;;;;9.10;2.58;;;19.30;99.90;;;;;;5076405;28;20041;-65
2022/09/06 04:23:27;;;;;;;7.32;1.67;;;19.40;99.90;;;;;;5073552;28;20476;-66
2022/09/06 04:25:55;;;;;;;12.95;1.90;;;19.40;99.90;;;;;;5058304;28;20079;-65
2022/09/06 04:28:21;;;;;;;5.00;1.70;;;19.40;99.90;;;;;;5056088;28;20771;-65
2022/09/06 04:30:58;;;;;;;5.07;2.25;;;19.40;99.90;;;;;;5056375;28;20389;-65
2022/09/06 04:33:25;;;;;;;5.55;1.98;;;19.50;99.90;;;;;;5056291;28;20068;-66
2022/09/06 04:35:56;;;;;;;6.22;1.63;;;19.50;99.90;;;;;;5056251;28;20052;-65
2022/09/06 04:38:26;;;;;;;6.63;2.03;;;19.40;99.90;;;;;;5056272;28;20496;-65
2022/09/06 04:40:54;;;;;;;6.30;2.42;;;19.40;99.90;;;;;;5056295;28;20029;-65
2022/09/06 04:43:20;;;;;;;4.35;1.90;;;19.30;99.90;;;;;;5056304;28;20040;-65
2022/09/06 04:45:46;;;;;;;5.55;1.80;;;19.30;99.90;;;;;;5056245;28;20033;-65
2022/09/06 04:48:12;;;;;;;3.45;1.70;;;19.20;99.90;;;;;;5056014;28;20048;-65
2022/09/06 04:50:38;;;;;;;4.63;2.00;;;19.20;99.90;;;;;;5056022;28;20098;-66
2022/09/06 04:53:05;;;;;;;10.82;2.15;;;19.30;99.90;;;;;;5056063;28;20105;-65
2022/09/06 04:55:32;;;;;;;10.60;2.33;;;19.30;99.90;;;;;;5055964;28;20128;-65
2022/09/06 04:57:59;;;;;;;6.75;2.00;;;19.40;99.90;;;;;;5055928;28;20049;-65
2022/09/06 05:00:31;;;;;;;5.47;1.83;;;19.50;99.90;;;;;;5055930;28;20037;-65
2022/09/06 05:02:57;;;;;;;6.13;1.70;;;19.50;99.90;;;;;;5055591;28;20056;-66
2022/09/06 05:05:24;;;;;;;3.08;1.85;;;19.50;99.90;;;;;;5055432;28;20388;-66
2022/09/06 05:07:53;;;;;;;7.97;2.45;;;19.40;99.90;;;;;;5055599;28;20033;-66
2022/09/06 05:10:20;;;;;;;10.83;2.20;;;19.50;99.90;;;;;;5054625;28;20055;-65
2022/09/06 05:12:50;;;;;;;3.58;2.03;;;19.60;99.90;;;;;;5055327;28;20556;-66
2022/09/06 05:15:20;;;;;;;11.02;2.63;;;19.70;99.90;;;;;;5055365;28;20451;-66
2022/09/06 05:17:46;;;;;;;6.40;2.30;;;19.80;99.90;;;;;;5055236;28;20082;-66
2022/09/06 05:20:13;;;;;;;8.85;2.30;;;19.70;99.90;;;;;;5055118;28;20037;-65
2022/09/06 05:22:39;;;;;;;9.38;2.97;;;19.70;99.90;;;;;;5067658;28;20043;-65
2022/09/06 05:25:06;;;;;;;4.40;1.60;;;19.70;99.90;;;;;;5075586;28;20040;-65
2022/09/06 05:27:32;;;;;;;8.60;2.17;;;19.70;99.90;;;;;;5075271;28;20038;-65
2022/09/06 05:29:58;;;;;;;5.22;1.75;;;19.70;99.90;;;;;;5074582;28;20127;-65
2022/09/06 05:32:24;;;;;;;7.05;2.13;;;19.70;99.90;;;;;;5074071;28;20047;-66
2022/09/06 05:34:49;;;;;;;12.57;2.22;;;19.70;99.90;;;;;;5074843;28;20048;-65
2022/09/06 05:37:15;;;;;;;7.93;2.35;;;19.50;99.90;;;;;;5073806;28;20531;-65
2022/09/06 05:39:41;;;;;;;4.20;1.77;;;19.40;99.90;;;;;;5074775;28;20044;-65
2022/09/06 05:42:07;;;;;;;4.90;2.10;;;19.50;99.90;;;;;;5074998;28;20044;-66
2022/09/06 05:44:36;;;;;;;8.60;2.20;;;19.70;99.90;;;;;;5075075;28;20048;-65
2022/09/06 05:47:02;;;;;;;5.40;2.33;;;19.70;99.90;;;;;;5074519;28;20077;-65
2022/09/06 05:49:29;;;;;;;9.70;2.33;;;;;;;;;;5075152;28;20411;-65
2022/09/06 05:51:55;;;;;;;7.38;2.10;;;19.80;99.90;;;;;;5074140;28;20045;-66
2022/09/06 05:54:21;;;;;;;8.82;2.08;;;19.80;99.90;;;;;;5073290;28;20577;-65
2022/09/06 05:56:47;;;;;;;6.43;2.50;;;19.80;99.90;;;;;;5074574;28;20143;-65
2022/09/06 05:59:13;;;;;;;8.95;2.15;;;19.90;99.90;;;;;;5074643;28;20040;-65
2022/09/06 06:01:47;;;;;;;5.45;1.98;;;19.90;99.90;;;;;;5074722;28;20094;-65
2022/09/06 06:04:13;;;;;;;7.50;2.15;;;20.10;99.90;;;;;;5073854;28;20043;-65
2022/09/06 06:06:39;;;;;;;7.93;2.05;;;19.90;99.90;;;;;;5074699;28;20041;-65
2022/09/06 06:09:05;;;;;;;9.07;2.72;;;;;;;;;;5074133;28;20040;-65
2022/09/06 06:11:31;;;;;;;8.80;1.92;;;20.30;99.90;;;;;;5072689;28;20484;-65
2022/09/06 06:13:57;;;;;;;3.63;1.88;;;20.40;99.90;;;;;;5073775;28;20119;-66
2022/09/06 06:16:24;;;;;;;7.35;2.15;;;20.50;99.90;;;;;;5073841;28;20081;-65
2022/09/06 06:18:51;;;;;;;4.57;1.98;;;20.50;99.90;;;;;;5074312;28;20084;-65
2022/09/06 06:21:22;;;;;;;7.45;2.20;;;20.40;99.90;;;;;;5074073;28;20508;-64
2022/09/06 06:23:59;;;;;;;6.15;2.40;;;20.40;99.90;;;;;;5074083;28;20052;-65
2022/09/06 06:26:26;;;;;;;7.97;2.38;;;20.20;99.90;;;;;;5074377;28;20125;-65
2022/09/06 06:28:52;;;;;;;4.32;1.98;;;20.10;99.90;;;;;;5074361;28;20510;-66
2022/09/06 06:31:21;;;;;;;6.85;2.08;;;20.00;99.90;;;;;;5074573;28;20177;-65
2022/09/06 06:33:47;;;;;;;8.38;1.60;;;19.70;99.90;;;;;;5074095;28;20457;-65
2022/09/06 06:36:13;;;;;;;8.57;2.05;;;19.40;99.90;;;;;;5073924;28;20530;-65
2022/09/06 06:38:41;;;;;;;3.25;1.75;;;19.10;99.90;;;;;;5074074;28;20040;-65
2022/09/06 06:41:08;;;;;;;6.13;2.03;;;18.90;99.90;;;;;;5073911;28;20040;-65
2022/09/06 06:43:36;;;;;;;6.95;2.05;;;18.90;99.90;;;;;;5074017;28;20051;-65
2022/09/06 06:46:22;;;;;;;8.07;2.20;;;19.10;99.90;;;;;;5074036;28;20033;-65
2022/09/06 06:48:48;;;;;;;9.60;2.13;;;19.20;99.90;;;;;;5073921;28;20123;-65
2022/09/06 06:51:16;;;;;;;8.52;2.33;;;19.40;99.90;;;;;;5073815;28;20043;-65
2022/09/06 06:53:44;;;;;;;6.78;2.10;;;18.70;99.90;;;;;;5073946;28;20044;-65
2022/09/06 06:56:22;;;;;;;4.63;2.33;;;18.50;99.90;;;;;;5071699;28;20550;-65
2022/09/06 06:58:51;;;;;;;3.38;1.65;;;18.40;99.90;;;;;;5062259;28;20037;-66
2022/09/06 07:01:19;;;;;;;7.97;2.13;;;18.30;99.90;;;;;;5051583;28;20374;-65
2022/09/06 07:03:48;;;;;;;7.03;2.03;;;;;;;;;;5051659;28;20037;-65
2022/09/06 07:06:14;;;;;;;9.57;2.38;;;18.80;99.90;;;;;;5051397;28;20041;-65
2022/09/06 07:08:40;;;;;;;12.05;2.10;;;19.70;99.90;;;;;;5051732;28;20390;-65
2022/09/06 07:11:08;;;;;;;13.57;2.30;;;19.80;99.90;;;;;;5050607;28;20555;-65
2022/09/06 07:13:35;;;;;;;6.95;1.60;;;19.90;99.90;;;;;;5051300;28;20071;-66
2022/09/06 07:16:21;;;;;;;6.32;1.80;;;20.40;99.90;;;;;;5051366;28;20489;-65
2022/09/06 07:18:51;;;;;;;5.47;1.80;;;20.90;99.90;;;;;;5051431;28;20045;-65
2022/09/06 07:21:25;;;;;;;9.40;1.77;;;21.10;99.90;;;;;;5051467;28;20040;-66
2022/09/06 07:23:52;;;;;;;7.18;1.65;;;21.50;99.90;;;;;;5057505;28;20044;-66
2022/09/06 07:26:23;;;;;;;5.40;2.08;;;21.40;99.90;;;;;;5069099;28;20117;-65
2022/09/06 07:28:59;;;;;;;2.78;1.20;;;21.80;99.90;;;;;;5067786;28;20043;-66
2022/09/06 07:31:25;;;;;;;5.00;1.63;;;21.80;99.90;;;;;;5071405;28;20047;-66
2022/09/06 07:33:51;;;;;;;10.35;2.67;;;22.10;99.90;;;;;;5071586;28;20039;-66
2022/09/06 07:36:17;;;;;;;8.63;2.30;;;22.40;99.90;;;;;;5071755;28;20041;-66
2022/09/06 07:38:47;;;;;;;4.75;1.80;;;;;;;;;;5071181;28;20102;-66
2022/09/06 07:41:13;;;;;;;11.75;2.20;;;23.10;99.90;;;;;;5070769;28;20051;-66
2022/09/06 07:43:39;;;;;;;3.80;2.25;;;;;;;;;;5070850;28;20036;-66
2022/09/06 07:46:14;;;;;;;9.35;1.90;;;23.30;99.90;;;;;;5073260;28;20120;-66
2022/09/06 07:48:42;;;;;;;5.63;2.58;;;23.30;99.90;;;;;;5073436;28;20049;-66
2022/09/06 07:51:15;;;;;;;6.45;2.10;;;23.30;99.90;;;;;;5072523;28;20128;-65
2022/09/06 07:53:43;;;;;;;4.45;1.90;;;23.40;99.90;;;;;;5072276;28;20098;-65
2022/09/06 07:56:11;;;;;;;9.13;2.20;;;23.50;99.90;;;;;;5074229;28;20037;-66
2022/09/06 07:58:38;;;;;;;6.85;2.20;;;23.80;99.90;;;;;;5075040;28;20036;-68
2022/09/06 08:01:29;;;;;;;4.70;1.88;;;23.70;99.90;;;;;;5075804;28;20036;-66
2022/09/06 08:03:59;;;;;;;9.38;2.55;;;23.30;99.90;;;;;;5075215;28;20094;-65
2022/09/06 08:06:27;;;;;;;7.05;2.45;;;23.40;99.90;;;;;;5076200;28;20102;-66
2022/09/06 08:08:53;;;;;;;13.75;3.85;;;23.60;99.90;;;;;;5075472;28;20037;-66
2022/09/06 08:11:21;;;;;;;4.00;2.20;;;23.70;99.90;;;;;;5073305;28;20795;-66
2022/09/06 08:13:53;;;;;;;4.40;1.73;;;24.00;99.90;;;;;;5075169;28;20037;-70
2022/09/06 08:16:20;;;;;;;4.65;2.00;;;24.20;99.90;;;;;;5076640;28;20036;-65
2022/09/06 08:18:51;;;;;;;5.43;1.70;;;24.40;99.90;;;;;;5075453;28;20052;-66
2022/09/06 08:21:17;;;;;;;4.22;1.55;;;24.60;99.90;;;;;;5076310;28;20047;-66
2022/09/06 08:23:48;;;;;;;7.35;2.40;;;24.50;99.90;;;;;;5076192;28;20044;-66
2022/09/06 08:26:15;;;;;;;6.40;2.05;;;24.70;99.90;;;;;;5074584;28;20042;-66
2022/09/06 08:28:41;;;;;;;2.90;1.65;;;24.80;99.90;;;;;;5074589;28;20044;-67
2022/09/06 08:31:11;;;;;;;7.40;2.13;;;25.00;99.90;;;;;;5074628;28;20174;-65
2022/09/06 08:33:39;;;;;;;9.43;1.73;;;25.00;99.90;;;;;;5074515;28;20051;-65
2022/09/06 08:36:05;;;;;;;5.40;1.88;;;24.80;99.90;;;;;;5074223;28;20037;-66
2022/09/06 08:38:32;;;;;;;6.13;1.90;;;24.80;99.90;;;;;;5075214;28;20139;-66
2022/09/06 08:41:15;;;;;;;3.50;1.77;;;24.60;99.90;;;;;;5076165;28;20133;-65
2022/09/06 08:44:05;;;;;;;5.72;1.98;;;24.60;99.90;;;;;;5075966;28;20053;-68
2022/09/06 08:46:40;;;;;;;6.13;1.90;;;24.30;99.90;;;;;;5076201;28;20392;-65
2022/09/06 08:49:08;;;;;;;5.55;1.90;;;24.30;99.90;;;;;;5076104;28;20039;-65
2022/09/06 08:51:43;;;;;;;2.22;1.40;;;24.10;99.90;;;;;;5076167;28;20044;-65
2022/09/06 08:54:28;;;;;;;3.63;1.75;;;23.90;99.90;;;;;;5076079;28;20047;-65
2022/09/06 08:57:12;;;;;;;8.35;1.90;;;23.90;99.90;;;;;;5075846;28;20080;-67
2022/09/06 08:59:39;;;;;;;6.65;1.48;;;23.70;99.90;;;;;;5076143;28;20563;-65
2022/09/06 09:02:17;;;;;;;2.47;1.35;;;23.90;99.90;;;;;;5076064;28;20079;-66
2022/09/06 09:04:51;;;;;;;3.78;1.45;;;23.90;99.90;;;;;;5075160;28;20044;-65
2022/09/06 09:07:48;;;;;;;8.23;2.13;;;24.00;99.90;;;;;;5075597;28;20033;-65
2022/09/06 09:10:31;;;;;;;9.25;1.80;;;24.00;99.90;;;;;;5075866;28;20164;-65
2022/09/06 09:13:02;;;;;;;5.55;1.45;;;23.80;99.90;;;;;;5075761;28;20131;-65
2022/09/06 09:15:28;;;;;;;4.50;1.70;;;23.60;99.90;;;;;;5075516;28;20048;-65
2022/09/06 09:17:54;;;;;;;4.20;1.58;;;23.70;99.90;;;;;;5075721;28;20048;-65
2022/09/06 09:20:21;;;;;;;3.67;1.48;;;23.90;99.90;;;;;;5075402;28;20044;-65
2022/09/06 09:22:47;;;;;;;6.15;1.73;;;23.70;99.90;;;;;;5075492;28;20040;-65
2022/09/06 09:25:23;;;;;;;4.25;1.42;;;23.60;99.90;;;;;;5064727;28;20045;-65
2022/09/06 09:27:56;;;;;;;8.23;1.60;;;23.60;99.90;;;;;;5067720;28;20638;-70
2022/09/06 09:30:26;;;;;;;1.90;1.20;;;23.60;99.90;;;;;;5075392;28;20044;-66
2022/09/06 09:32:52;;;;;;;7.40;1.77;;;23.40;99.90;;;;;;5074358;28;20051;-65
2022/09/06 09:35:18;;;;;;;6.22;1.38;;;23.40;99.90;;;;;;5074839;28;20614;-65
2022/09/06 09:37:45;;;;;;;5.38;2.03;;;23.60;99.90;;;;;;5075006;28;20051;-66
2022/09/06 09:40:14;;;;;;;7.57;1.85;;;23.60;99.90;;;;;;5075149;28;20047;-65
2022/09/06 09:42:40;;;;;;;10.25;2.08;;;23.60;99.90;;;;;;5075238;28;20039;-65
2022/09/06 09:45:27;;;;;;;3.92;1.40;;;23.60;99.90;;;;;;5073155;28;20492;-65
2022/09/06 09:47:54;;;;;;;3.22;1.52;;;23.60;99.90;;;;;;5066403;28;20075;-65
2022/09/06 09:50:27;;;;;;;6.18;2.13;;;23.60;99.90;;;;;;5072987;28;20044;-65
2022/09/06 09:52:53;;;;;;;4.50;1.80;;;23.60;99.90;;;;;;5073040;28;20508;-65
2022/09/06 09:55:27;;;;;;;7.85;1.60;;;23.70;99.90;;;;;;5072813;28;20054;-65
2022/09/06 09:57:53;;;;;;;6.68;2.08;;;23.60;99.90;;;;;;5072811;28;20424;-65
2022/09/06 10:00:39;;;;;;;4.78;2.10;;;23.30;99.90;;;;;;5074728;28;20048;-65
2022/09/06 10:03:17;;;;;;;3.88;2.33;;;22.90;99.90;;;;;;5074941;28;20119;-65
2022/09/06 10:05:59;;;;;;;6.95;2.50;;;22.70;99.90;;;;;;5074564;28;20533;-65
2022/09/06 10:08:26;;;;;;;6.57;2.25;;;22.50;99.90;;;;;;5074290;28;20075;-65
2022/09/06 10:10:52;;;;;;;6.60;2.33;;;22.70;99.90;;;;;;5074700;28;20044;-65
2022/09/06 10:13:29;;;;;;;5.50;3.08;;;22.70;99.90;;;;;;5071899;28;20070;-70
2022/09/06 10:15:57;;;;;;;9.30;2.40;;;22.60;99.90;;;;;;5059295;28;20463;-66
2022/09/06 10:18:43;;;;;;;7.65;2.13;;;22.80;99.90;;;;;;5052984;28;20045;-66
2022/09/06 10:21:21;;;;;;;7.65;2.20;;;22.90;99.90;;;;;;5070200;28;20530;-66
2022/09/06 10:24:09;;;;;;;7.05;1.92;;;23.20;99.90;;;;;;5072788;28;20123;-65
2022/09/06 10:26:51;;;;;;;8.93;2.58;;;23.60;99.90;;;;;;5066552;28;20083;-65
2022/09/06 10:29:40;;;;;;;4.97;2.00;;;24.00;99.90;;;;;;5052196;28;20091;-65
2022/09/06 10:32:24;;;;;;;3.60;2.15;;;24.30;99.90;;;;;;5065563;28;20037;-65
2022/09/06 10:35:13;;;;;;;8.77;2.67;;;24.60;99.90;;;;;;5051708;28;20048;-66
2022/09/06 10:38:24;;;;;;;6.57;2.55;;;24.30;99.90;;;;;;5051970;28;20504;-66
2022/09/06 10:41:24;;;;;;;11.88;2.20;;;24.50;99.90;;;;;;5051866;28;20087;-66
2022/09/06 10:43:50;;;;;;;5.00;2.70;;;24.30;99.90;;;;;;5053858;28;20041;-65
2022/09/06 10:46:20;;;;;;;7.18;2.90;;;24.20;99.90;;;;;;5053048;28;20481;-65
2022/09/06 10:48:47;;;;;;;7.05;3.10;;;24.20;99.90;;;;;;5051805;28;20099;-64
2022/09/06 10:51:33;;;;;;;11.02;2.80;;;24.40;99.90;;;;;;5051721;28;20044;-65
2022/09/06 10:54:28;;;;;;;9.18;2.70;;;24.40;99.90;;;;;;5053731;28;20049;-66
2022/09/06 10:57:04;;;;;;;10.68;2.78;;;24.50;99.90;;;;;;5051324;28;20131;-65
2022/09/06 10:59:46;;;;;;;4.40;2.53;;;24.50;99.90;;;;;;5051992;28;20551;-66
2022/09/06 11:02:49;;;;;;;6.35;2.70;;;24.50;99.90;;;;;;5051590;28;20041;-66
2022/09/06 11:06:02;;;;;;;5.85;2.58;;;24.30;99.90;;;;;;5051237;28;20041;-65
2022/09/06 11:08:50;;;;;;;8.88;2.53;;;24.40;99.90;;;;;;5049777;28;20119;-65
2022/09/06 11:11:23;;;;;;;5.47;2.50;;;24.50;99.90;;;;;;5051421;28;20546;-66
2022/09/06 11:13:49;;;;;;;4.10;2.08;;;24.60;99.90;;;;;;5051930;28;20045;-66
2022/09/06 11:16:31;;;;;;;5.10;2.85;;;24.50;99.90;;;;;;5051289;28;20041;-65
2022/09/06 11:19:07;;;;;;;4.90;2.40;;;24.60;99.90;;;;;;5051533;28;20066;-65
2022/09/06 11:21:47;;;;;;;10.98;2.70;;;24.50;99.90;;;;;;5051375;28;20048;-65
2022/09/06 11:24:43;;;;;;;5.07;1.92;;;24.70;99.90;;;;;;5051451;28;20033;-65
2022/09/06 11:27:24;;;;;;;6.35;2.58;;;24.80;99.90;;;;;;5052071;28;20102;-65
2022/09/06 11:29:55;;;;;;;4.15;2.42;;;;;;;;;;5055729;28;20086;-66
2022/09/06 11:32:49;;;;;;;3.75;2.20;;;25.10;99.90;;;;;;5055503;28;20048;-65
2022/09/06 11:35:21;;;;;;;5.88;2.22;;;25.10;99.90;;;;;;5055295;28;20045;-66
2022/09/06 11:37:56;;;;;;;4.20;2.15;;;25.30;99.90;;;;;;5056517;28;20130;-64
2022/09/06 11:40:27;;;;;;;4.50;2.28;;;25.70;99.90;;;;;;5074766;28;20036;-66
2022/09/06 11:42:53;;;;;;;4.88;2.10;;;;;;;;;;5075477;28;20124;-65
2022/09/06 11:45:37;;;;;;;6.05;2.45;;;25.90;99.90;;;;;;5075313;28;20052;-65
2022/09/06 11:48:22;;;;;;;6.38;2.53;;;25.90;99.90;;;;;;5074849;28;20131;-65
2022/09/06 11:50:54;;;;;;;8.65;2.78;;;26.10;99.90;;;;;;5075248;28;20043;-65
2022/09/06 11:53:43;;;;;;;8.45;2.22;;;25.80;99.90;;;;;;5076431;28;20040;-65
2022/09/06 11:56:15;;;;;;;7.13;2.42;;;25.90;99.90;;;;;;5064767;28;20527;-65
2022/09/06 11:58:44;;;;;;;7.50;2.45;;;25.90;99.90;;;;;;5074791;28;20048;-66
2022/09/06 12:01:17;;;;;;;8.85;2.20;;;25.80;99.90;;;;;;5074098;28;20032;-65
2022/09/06 12:03:48;;;;;;;3.33;2.47;;;25.90;99.90;;;;;;5074709;28;20051;-66
2022/09/06 12:06:25;;;;;;;4.82;2.92;;;25.90;99.90;;;;;;5074546;28;20093;-66
2022/09/06 12:08:53;;;;;;;8.57;2.38;;;26.00;99.90;;;;;;5076740;28;20385;-65
2022/09/06 12:11:33;;;;;;;6.07;2.40;;;25.90;99.90;;;;;;5073950;28;20068;-67
2022/09/06 12:14:25;;;;;;;8.70;2.45;;;25.90;99.90;;;;;;5063278;28;20040;-65
2022/09/06 12:16:55;;;;;;;4.15;1.90;;;26.00;99.90;;;;;;5061814;28;20048;-65
2022/09/06 12:19:44;;;;;;;4.78;2.50;;;26.00;99.90;;;;;;5075031;28;20090;-66
2022/09/06 12:22:28;;;;;;;4.35;2.33;;;26.10;99.90;;;;;;5060356;28;20036;-66
2022/09/06 12:25:01;;;;;;;8.13;2.30;;;26.10;99.90;;;;;;5075282;28;20048;-66
2022/09/06 12:27:50;;;;;;;3.13;2.10;;;26.00;99.90;;;;;;5076534;28;20141;-65
2022/09/06 12:30:37;;;;;;;7.47;2.25;;;26.20;99.90;;;;;;5076510;28;20484;-66
2022/09/06 12:33:24;;;;;;;5.68;2.03;;;26.20;99.90;;;;;;5067122;28;20048;-67
2022/09/06 12:35:50;;;;;;;4.35;1.90;;;26.20;99.90;;;;;;5061163;28;20534;-65
2022/09/06 12:38:22;;;;;;;5.15;2.00;;;26.20;99.90;;;;;;5068366;28;20049;-66
2022/09/06 12:40:57;;;;;;;6.00;2.28;;;26.20;99.90;;;;;;5076165;28;20028;-66
2022/09/06 12:43:24;;;;;;;5.45;2.13;;;26.10;99.90;;;;;;5076402;28;20036;-72
2022/09/06 12:45:51;;;;;;;5.32;1.95;;;26.20;99.90;;;;;;5076329;28;20044;-66
2022/09/06 12:48:34;;;;;;;7.80;2.28;;;26.30;99.90;;;;;;5075974;28;20040;-66
2022/09/06 12:51:05;;;;;;;4.70;2.20;;;26.20;99.90;;;;;;5073185;28;21237;-66
2022/09/06 12:53:33;;;;;;;7.75;2.60;;;26.20;99.90;;;;;;5056028;28;20078;-66
2022/09/06 12:56:08;;;;;;;3.45;2.08;;;26.20;99.90;;;;;;5055894;28;20037;-66
2022/09/06 12:58:35;;;;;;;9.68;3.10;;;26.30;99.90;;;;;;5054545;28;20407;-66
2022/09/06 13:01:22;;;;;;;6.85;2.50;;;26.30;99.90;;;;;;5055877;28;20044;-66
2022/09/06 13:04:04;;;;;;;5.22;2.28;;;26.40;99.90;;;;;;5056049;28;20040;-65
2022/09/06 13:06:35;;;;;;;5.90;2.35;;;26.50;99.90;;;;;;5055923;28;20037;-66
2022/09/06 13:09:01;;;;;;;2.88;1.42;;;26.50;99.90;;;;;;5055779;28;20045;-66
2022/09/06 13:11:35;;;;;;;4.38;1.70;;;26.30;99.90;;;;;;5055789;28;20028;-65